Time;durP1;ratioP1;P1;durP2;ratioP2;P2;SDS_P1;SDS_P2;PMS_P1;PMS_P2;Temp;Humidity;BMP_temperature;BMP_pressure;BME280_temperature;BME280_humidity;BME280_pressure;Samples;Min_cycle;Max_cycle;Signal;HPM_P1;HPM_P2
2021/12/19 11:56:33;;;;;;;0.90;0.90;;;6.40;99.90;;;;;;7306472;19;20386;-80
2021/12/19 12:02:26;;;;;;;0.70;0.70;;;6.30;99.90;;;;;;7351987;19;20340;-79
2021/12/19 12:41:51;;;;;;;0.85;0.85;;;6.30;99.90;;;;;;7417587;19;20642;-81
2021/12/19 12:44:18;;;;;;;1.67;1.15;;;6.30;99.90;;;;;;7413571;19;20317;-82
2021/12/19 12:46:45;;;;;;;0.90;0.90;;;6.30;99.90;;;;;;7417250;19;20311;-87
2021/12/19 12:49:14;;;;;;;1.50;1.10;;;6.30;99.90;;;;;;7416919;19;20298;-86
2021/12/19 12:51:45;;;;;;;1.45;1.35;;;6.30;99.90;;;;;;7410452;19;20341;-84
2021/12/19 12:54:21;;;;;;;1.98;1.70;;;6.30;99.90;;;;;;7409467;19;20369;-87
2021/12/19 12:56:54;;;;;;;1.10;1.10;;;6.30;99.90;;;;;;7394102;19;20313;-84
2021/12/19 12:59:24;;;;;;;1.20;1.17;;;6.30;99.90;;;;;;7392210;19;20291;-90
2021/12/19 13:01:53;;;;;;;2.30;0.90;;;6.30;99.90;;;;;;7418089;19;20344;-92
2021/12/19 13:04:26;;;;;;;2.30;1.20;;;6.40;99.90;;;;;;7413079;19;20356;-83
2021/12/19 13:07:00;;;;;;;1.08;1.00;;;6.30;99.90;;;;;;7411876;19;20340;-86
2021/12/19 13:09:41;;;;;;;1.03;1.03;;;6.30;99.90;;;;;;7395018;19;20341;-83
2021/12/19 13:12:28;;;;;;;1.88;1.30;;;6.20;99.90;;;;;;7383589;19;20315;-82
2021/12/19 13:15:01;;;;;;;1.10;1.10;;;6.10;99.90;;;;;;7385762;19;20388;-86
2021/12/19 13:17:32;;;;;;;0.98;0.98;;;6.10;99.90;;;;;;7405635;19;20429;-86
2021/12/19 13:20:06;;;;;;;1.25;1.17;;;6.10;99.90;;;;;;7412308;19;20352;-87
2021/12/19 13:22:38;;;;;;;0.90;0.88;;;6.10;99.90;;;;;;7406840;19;20343;-83
2021/12/19 13:25:08;;;;;;;1.20;1.10;;;6.10;99.90;;;;;;7409584;19;20305;-88
2021/12/19 13:27:36;;;;;;;1.23;1.13;;;6.10;99.90;;;;;;7406731;19;20294;-81
2021/12/19 13:30:12;;;;;;;1.20;1.00;;;6.10;99.90;;;;;;7400678;19;20350;-84
2021/12/19 13:32:54;;;;;;;1.60;1.20;;;6.10;99.90;;;;;;7396406;19;20377;-83
2021/12/19 13:35:48;;;;;;;1.02;1.02;;;6.10;99.90;;;;;;7396921;19;21741;-84
2021/12/19 13:38:14;;;;;;;1.02;1.02;;;6.10;99.90;;;;;;7301378;19;2019596;-84
2021/12/19 13:41:01;;;;;;;1.27;1.17;;;6.10;99.90;;;;;;7405052;19;20305;-88
2021/12/19 13:43:29;;;;;;;1.30;1.10;;;6.10;99.90;;;;;;7302385;19;2007654;-84
2021/12/19 13:45:59;;;;;;;1.80;1.10;;;6.10;99.90;;;;;;7403660;19;20308;-82
2021/12/19 13:48:29;;;;;;;1.77;1.23;;;6.00;99.90;;;;;;7404249;19;20331;-84
2021/12/19 13:51:07;;;;;;;1.58;1.40;;;6.10;99.90;;;;;;7409591;19;20815;-86
2021/12/19 13:53:53;;;;;;;1.50;1.30;;;6.10;99.90;;;;;;7395705;19;20329;-83
2021/12/19 13:56:24;;;;;;;1.40;1.30;;;6.00;99.90;;;;;;7403384;19;20308;-88
2021/12/19 13:59:00;;;;;;;1.73;1.42;;;6.00;99.90;;;;;;7407110;19;20315;-84
2021/12/19 14:01:34;;;;;;;2.33;1.20;;;6.10;99.90;;;;;;7384145;19;21087;-83
2021/12/19 14:04:22;;;;;;;1.52;1.13;;;6.10;99.90;;;;;;7411047;19;20340;-82
2021/12/19 14:06:49;;;;;;;1.40;1.30;;;6.20;99.90;;;;;;7408744;19;20336;-85
2021/12/19 14:09:39;;;;;;;1.05;1.05;;;6.10;99.90;;;;;;7396283;19;20321;-82
2021/12/19 14:12:25;;;;;;;2.70;1.30;;;6.10;99.90;;;;;;7408249;19;20364;-84
2021/12/19 14:14:51;;;;;;;1.20;1.20;;;6.10;99.90;;;;;;7277685;19;2004258;-84
2021/12/19 14:17:20;;;;;;;1.35;0.98;;;6.00;99.90;;;;;;7394682;19;20376;-85
2021/12/19 14:20:01;;;;;;;2.28;1.40;;;6.10;99.90;;;;;;7398359;19;20754;-83
2021/12/19 14:22:27;;;;;;;1.13;1.02;;;6.20;99.90;;;;;;7403137;19;20352;-87
2021/12/19 14:24:58;;;;;;;1.25;1.15;;;6.10;99.90;;;;;;7406862;19;20340;-85
2021/12/19 14:27:25;;;;;;;1.08;1.08;;;6.20;99.90;;;;;;7399369;19;20505;-83
2021/12/19 14:30:03;;;;;;;1.95;1.50;;;6.10;99.90;;;;;;7393781;19;20361;-85
2021/12/19 14:32:29;;;;;;;4.30;1.17;;;6.10;99.90;;;;;;7396440;19;20316;-89
2021/12/19 14:35:06;;;;;;;1.30;1.23;;;6.10;99.90;;;;;;7403378;19;20308;-84
2021/12/19 14:37:40;;;;;;;1.30;1.20;;;6.10;99.90;;;;;;7375903;19;21099;-85
2021/12/19 14:40:22;;;;;;;1.30;1.20;;;6.10;99.90;;;;;;7397896;19;20340;-83
2021/12/19 14:43:03;;;;;;;1.40;1.30;;;6.10;99.90;;;;;;7268860;19;2005372;-83
2021/12/19 14:45:35;;;;;;;1.30;1.20;;;6.10;99.90;;;;;;7394203;19;20321;-83
2021/12/19 14:48:09;;;;;;;2.13;1.10;;;6.10;99.90;;;;;;7374134;19;20312;-89
2021/12/19 14:50:49;;;;;;;1.48;1.30;;;6.10;99.90;;;;;;7378920;19;20364;-88
2021/12/19 14:53:43;;;;;;;1.15;1.15;;;6.10;99.90;;;;;;7293813;19;2004275;-83
2021/12/19 14:56:14;;;;;;;1.25;1.15;;;6.10;99.90;;;;;;7274608;19;2004348;-83
2021/12/19 14:58:42;;;;;;;1.13;1.13;;;6.10;99.90;;;;;;7397817;19;20312;-83
2021/12/19 15:01:10;;;;;;;1.30;1.20;;;6.00;99.90;;;;;;7403863;19;20996;-82
2021/12/19 15:03:40;;;;;;;1.50;1.40;;;6.00;99.90;;;;;;7400511;19;20319;-83
2021/12/19 15:06:14;;;;;;;2.22;1.42;;;6.10;99.90;;;;;;7400131;19;20330;-82
2021/12/19 15:08:40;;;;;;;1.30;1.20;;;6.00;99.90;;;;;;7397704;19;20342;-85
2021/12/19 15:11:05;;;;;;;3.10;1.33;;;6.00;99.90;;;;;;7406916;19;20296;-83
2021/12/19 15:13:31;;;;;;;2.87;1.60;;;6.00;99.90;;;;;;7403172;19;20344;-84
2021/12/19 15:15:58;;;;;;;0.97;0.97;;;6.00;99.90;;;;;;7411177;19;20308;-86
2021/12/19 15:18:24;;;;;;;1.85;1.75;;;6.00;99.90;;;;;;7394640;19;20301;-87
2021/12/19 15:20:50;;;;;;;1.00;1.00;;;6.00;99.90;;;;;;7416653;19;20356;-84
2021/12/19 15:23:17;;;;;;;1.10;1.00;;;6.10;99.90;;;;;;7409459;19;20324;-87
2021/12/19 15:25:47;;;;;;;1.50;1.40;;;6.00;99.90;;;;;;7415155;19;20352;-91
2021/12/19 15:28:14;;;;;;;1.00;1.00;;;6.00;99.90;;;;;;7398624;19;20676;-90
2021/12/19 15:30:39;;;;;;;1.23;1.13;;;6.10;99.90;;;;;;7416150;19;20325;-90
2021/12/19 15:33:05;;;;;;;0.80;0.80;;;6.10;99.90;;;;;;7415775;19;20296;-83
2021/12/19 15:35:32;;;;;;;1.00;1.00;;;6.10;99.90;;;;;;7411221;19;20328;-83
2021/12/19 15:37:58;;;;;;;1.17;1.13;;;6.10;99.90;;;;;;7411509;19;20364;-83
2021/12/19 15:40:25;;;;;;;1.40;1.30;;;6.00;99.90;;;;;;7413258;19;20356;-83
2021/12/19 15:42:51;;;;;;;1.73;1.37;;;6.00;99.90;;;;;;7417835;19;20339;-90
2021/12/19 15:45:16;;;;;;;1.30;1.27;;;6.10;99.90;;;;;;7398407;19;20324;-88
2021/12/19 15:47:43;;;;;;;1.00;1.00;;;6.10;99.90;;;;;;7413495;19;20340;-89
2021/12/19 15:50:09;;;;;;;1.13;1.13;;;6.00;99.90;;;;;;7412569;19;20344;-83
2021/12/19 15:52:35;;;;;;;1.37;1.23;;;6.00;99.90;;;;;;7416269;19;20305;-88
2021/12/19 15:55:01;;;;;;;1.83;1.63;;;6.00;99.90;;;;;;7414181;19;20789;-86
2021/12/19 15:57:30;;;;;;;1.23;1.20;;;6.00;99.90;;;;;;7414269;19;20360;-91
2021/12/19 15:59:57;;;;;;;0.70;0.70;;;6.10;99.90;;;;;;7394805;19;20365;-91
2021/12/19 16:02:23;;;;;;;0.77;0.77;;;6.00;99.90;;;;;;7401919;19;20340;-83
2021/12/19 16:04:48;;;;;;;1.00;1.00;;;6.10;99.90;;;;;;7415321;19;20364;-83
2021/12/19 16:07:16;;;;;;;0.70;0.70;;;6.00;99.90;;;;;;7419733;19;20296;-89
2021/12/19 16:09:42;;;;;;;0.80;0.80;;;6.00;99.90;;;;;;7415101;19;20352;-84
2021/12/19 16:12:14;;;;;;;1.07;1.07;;;6.00;99.90;;;;;;7417952;19;20364;-92
2021/12/19 16:14:40;;;;;;;1.00;1.00;;;6.00;99.90;;;;;;7424772;19;20360;-91
2021/12/19 16:17:28;;;;;;;1.02;1.02;;;6.00;99.90;;;;;;7421770;19;20316;-89
2021/12/19 16:20:01;;;;;;;1.30;1.20;;;5.90;99.90;;;;;;7316072;19;2004368;-91
2021/12/19 16:22:28;;;;;;;0.88;0.88;;;6.10;99.90;;;;;;7420477;19;20329;-88
2021/12/19 16:24:54;;;;;;;0.90;0.90;;;6.10;99.90;;;;;;7417100;19;20349;-91
2021/12/19 16:27:22;;;;;;;2.13;1.50;;;6.00;99.90;;;;;;7399992;19;20349;-90
2021/12/19 16:29:50;;;;;;;1.00;0.90;;;6.00;99.90;;;;;;7422115;19;20360;-88
2021/12/19 16:32:17;;;;;;;0.85;0.85;;;6.00;99.90;;;;;;7422145;19;20320;-86
2021/12/19 16:34:46;;;;;;;0.80;0.80;;;6.00;99.90;;;;;;7375443;19;20365;-87
2021/12/19 20:02:49;;;;;;;1.30;1.20;;;4.70;99.90;;;;;;7409964;19;20392;-86
2021/12/19 20:05:15;;;;;;;3.08;1.30;;;4.70;99.90;;;;;;7415112;19;20312;-82
2021/12/19 20:07:41;;;;;;;1.45;1.13;;;4.60;99.90;;;;;;7389579;19;20312;-85
2021/12/19 20:10:08;;;;;;;1.83;1.17;;;4.50;99.90;;;;;;7405436;19;20333;-87
2021/12/19 20:12:35;;;;;;;1.52;1.33;;;4.50;99.90;;;;;;7406052;19;20352;-82
2021/12/19 20:15:02;;;;;;;1.40;1.30;;;4.50;99.90;;;;;;7408483;19;20300;-86
2021/12/19 20:17:28;;;;;;;1.30;1.23;;;4.40;99.90;;;;;;7389748;19;21100;-84
2021/12/19 20:19:54;;;;;;;1.52;1.20;;;4.40;99.90;;;;;;7404786;19;20368;-84
2021/12/19 20:22:20;;;;;;;1.75;1.48;;;4.30;99.90;;;;;;7405052;19;20380;-85
2021/12/19 20:24:47;;;;;;;2.13;1.27;;;4.30;99.90;;;;;;7390131;19;20482;-82
2021/12/19 20:27:15;;;;;;;1.13;1.02;;;4.20;99.90;;;;;;7409242;19;20324;-92
2021/12/19 20:29:41;;;;;;;1.80;1.70;;;4.20;99.90;;;;;;7419402;19;20308;-87
2021/12/19 20:32:08;;;;;;;3.40;1.50;;;4.10;99.90;;;;;;7416453;19;20333;-89
2021/12/19 20:34:34;;;;;;;1.50;1.40;;;4.30;99.90;;;;;;7391428;19;20344;-87
2021/12/19 20:37:03;;;;;;;2.55;1.35;;;4.10;99.90;;;;;;7423391;19;20317;-89
2021/12/19 20:39:31;;;;;;;1.63;1.25;;;4.00;99.90;;;;;;7419027;19;20340;-85
2021/12/19 20:42:10;;;;;;;1.10;1.10;;;3.90;99.90;;;;;;7415893;19;20320;-85
2021/12/19 20:44:37;;;;;;;1.50;1.15;;;3.90;99.90;;;;;;7418982;19;20369;-85
2021/12/19 20:47:04;;;;;;;1.17;1.10;;;3.90;99.90;;;;;;7407715;19;20315;-88
2021/12/19 20:49:32;;;;;;;1.15;1.00;;;3.80;99.90;;;;;;7416157;19;20348;-84
2021/12/19 20:51:59;;;;;;;1.15;1.05;;;3.70;99.90;;;;;;7396029;19;20380;-86
2021/12/19 20:54:28;;;;;;;3.03;1.35;;;3.90;99.90;;;;;;7413127;19;20313;-82
2021/12/19 20:56:56;;;;;;;1.48;1.27;;;3.70;99.90;;;;;;7409569;19;20361;-85
2021/12/19 20:59:24;;;;;;;1.40;1.15;;;3.60;99.90;;;;;;7396586;19;20336;-85
2021/12/19 21:01:53;;;;;;;2.45;1.48;;;3.60;99.90;;;;;;7417666;19;20379;-85
2021/12/19 21:04:20;;;;;;;1.85;1.27;;;3.50;99.90;;;;;;7417308;19;20328;-85
2021/12/19 21:06:48;;;;;;;3.03;1.35;;;3.50;99.90;;;;;;7417760;19;20376;-85
2021/12/19 21:09:19;;;;;;;1.83;1.33;;;3.40;99.90;;;;;;7420813;19;20357;-85
2021/12/19 21:11:48;;;;;;;1.30;1.20;;;3.40;99.90;;;;;;7423451;19;20360;-88
2021/12/19 21:14:32;;;;;;;2.13;1.25;;;3.40;99.90;;;;;;7415593;19;20714;-87
2021/12/19 21:19:54;;;;;;;1.67;1.33;;;3.30;99.90;;;;;;7293766;19;2004402;-87
2021/12/19 21:22:23;;;;;;;2.67;1.27;;;3.30;99.90;;;;;;7414464;19;20317;-86
2021/12/19 21:24:49;;;;;;;1.45;1.20;;;3.30;99.90;;;;;;7421862;19;20327;-82
2021/12/19 21:27:17;;;;;;;1.75;1.52;;;3.30;99.90;;;;;;7419346;19;20349;-83
2021/12/19 21:29:48;;;;;;;2.08;1.52;;;3.30;99.90;;;;;;7418276;19;20329;-87
2021/12/19 21:32:16;;;;;;;1.50;1.40;;;3.30;99.90;;;;;;7424359;19;20384;-88
2021/12/19 21:34:48;;;;;;;1.58;1.40;;;3.20;99.90;;;;;;7422132;19;20343;-86
2021/12/19 21:40:07;;;;;;;2.20;1.48;;;3.20;99.90;;;;;;7321743;19;2004366;-88
2021/12/19 21:42:47;;;;;;;1.70;1.47;;;3.10;99.90;;;;;;7391849;19;20313;-88
2021/12/19 21:45:16;;;;;;;1.50;1.40;;;3.20;99.90;;;;;;7417697;19;20328;-89
2021/12/19 21:47:46;;;;;;;1.40;1.30;;;3.20;99.90;;;;;;7397894;19;20356;-87
2021/12/19 21:50:15;;;;;;;1.33;1.23;;;3.10;99.90;;;;;;7396473;19;20329;-87
2021/12/19 21:52:42;;;;;;;2.67;1.33;;;3.10;99.90;;;;;;7414443;19;20341;-88
2021/12/19 21:55:17;;;;;;;2.53;1.38;;;3.00;99.90;;;;;;7388909;19;20345;-88
2021/12/19 21:58:12;;;;;;;1.03;1.00;;;3.00;99.90;;;;;;7375631;19;20286;-87
2021/12/19 22:00:51;;;;;;;6.23;1.70;;;3.00;99.90;;;;;;7283256;19;2004098;-85
2021/12/19 22:03:37;;;;;;;2.43;1.30;;;2.90;99.90;;;;;;7347712;19;20341;-89
